Terminal Aerodrome Forecast
Issued by NWS Cleveland, OH

Home | Current Version | Previous Version | Text Only | Print | Product List | Glossary On
Versions: 1 2 3 4 5 6 7 8 9 10 11 12 13 14 15 16 17 18 19 20 21 22 23 24 25 26 27 28 29 30 31 32
000
FTUS41 KCLE 200500
TAFCLE
TAF
KCLE 200528Z 2006/2112 20008KT P6SM BKN120 OVC200
     FM201400 20012G18KT P6SM VCSH BKN080 OVC120
     FM202000 22014G20KT 5SM -SHRA BKN025 OVC040
     FM210300 25008KT 4SM -SHRA BR BKN012 OVC025
     FM210700 30008KT 3SM -RA BR BKN008 OVC012=

USA.gov is the U.S. government's official web portal to all federal, state and local government web resources and services.